Time;durP1;ratioP1;P1;durP2;ratioP2;P2;SDS_P1;SDS_P2;PMS_P1;PMS_P2;Temp;Humidity;BMP_temperature;BMP_pressure;BME280_temperature;BME280_humidity;BME280_pressure;Samples;Min_cycle;Max_cycle;Signal;HPM_P1;HPM_P2
2023/03/22 00:01:32;;;;;;;26.67;18.38;;;;;;;;;;5006536;28;20044;-77
2023/03/22 00:03:58;;;;;;;24.73;15.07;;;;;;;;;;4998951;28;20045;-77
2023/03/22 00:06:25;;;;;;;24.38;17.63;;;;;;;;;;5008996;28;20056;-77
2023/03/22 00:08:52;;;;;;;23.05;16.75;;;;;;;;;;5006243;28;21391;-77
2023/03/22 00:11:19;;;;;;;22.80;14.68;;;;;;;;;;5006999;28;20045;-78
2023/03/22 00:13:45;;;;;;;23.17;15.82;;;;;;;;;;5010082;28;20564;-78
2023/03/22 00:16:12;;;;;;;20.15;14.73;;;;;;;;;;5009326;28;20835;-78
2023/03/22 00:18:38;;;;;;;21.98;16.10;;;;;;;;;;5008121;28;20050;-78
2023/03/22 00:21:05;;;;;;;24.90;14.98;;;;;;;;;;5012480;28;20063;-78
2023/03/22 00:23:31;;;;;;;24.05;13.80;;;;;;;;;;5009852;28;20111;-78
2023/03/22 00:25:57;;;;;;;19.73;13.57;;;;;;;;;;5011351;28;20049;-78
2023/03/22 00:28:23;;;;;;;20.35;12.48;;;;;;;;;;5009153;28;20045;-78
2023/03/22 00:30:57;;;;;;;26.75;11.75;;;;;;;;;;5019868;28;21522;-78
2023/03/22 00:33:24;;;;;;;17.30;11.10;;;;;;;;;;5014319;28;20073;-78
2023/03/22 00:35:55;;;;;;;17.70;11.75;;;;;;;;;;5012956;28;20087;-78
2023/03/22 00:38:21;;;;;;;17.98;12.05;;;;;;;;;;5012060;28;20051;-78
2023/03/22 00:40:47;;;;;;;17.40;11.50;;;;;;;;;;4986823;28;20123;-78
2023/03/22 00:43:13;;;;;;;20.17;12.10;;;;;;;;;;5010342;28;20045;-78
2023/03/22 00:45:39;;;;;;;21.00;11.85;;;;;;;;;;5012003;28;20844;-77
2023/03/22 00:48:12;;;;;;;19.67;11.68;;;;;;;;;;5010648;28;20127;-78
2023/03/22 00:50:38;;;;;;;14.88;8.88;;;;;;;;;;5011877;28;20480;-77
2023/03/22 00:53:05;;;;;;;17.95;10.75;;;;;;;;;;5009265;28;20041;-78
2023/03/22 00:55:31;;;;;;;25.70;12.60;;;;;;;;;;5008419;28;20130;-78
2023/03/22 00:57:57;;;;;;;16.35;9.38;;;;;;;;;;5007283;28;20824;-78
2023/03/22 01:00:23;;;;;;;18.75;10.75;;;;;;;;;;5017785;28;20041;-78
2023/03/22 01:02:52;;;;;;;22.85;13.18;;;;;;;;;;5011101;28;20041;-78
2023/03/22 01:05:20;;;;;;;19.70;11.07;;;;;;;;;;5008997;28;20510;-78
2023/03/22 01:07:49;;;;;;;15.18;9.77;;;;;;;;;;5004339;28;20049;-77
2023/03/22 01:10:15;;;;;;;23.25;10.68;;;;;;;;;;4992815;28;20759;-78
2023/03/22 01:12:42;;;;;;;16.88;9.82;;;;;;;;;;5004981;28;20142;-78
2023/03/22 01:15:08;;;;;;;17.20;9.00;;;;;;;;;;5003592;28;20048;-78
2023/03/22 01:17:34;;;;;;;16.83;8.93;;;;;;;;;;5003926;28;20041;-77
2023/03/22 01:20:00;;;;;;;20.13;9.55;;;;;;;;;;5005407;28;20075;-78
2023/03/22 01:22:26;;;;;;;17.70;9.73;;;;;;;;;;4989803;28;20049;-78
2023/03/22 01:24:52;;;;;;;16.95;8.35;;;;;;;;;;5010285;28;20052;-78
2023/03/22 01:27:18;;;;;;;12.05;7.00;;;;;;;;;;4991231;28;20049;-77
2023/03/22 01:29:44;;;;;;;16.17;7.72;;;;;;;;;;5010257;28;20095;-75
2023/03/22 01:32:10;;;;;;;16.55;7.03;;;;;;;;;;5005212;28;20080;-76
2023/03/22 01:34:36;;;;;;;12.35;7.25;;;;;;;;;;5009452;28;20104;-76
2023/03/22 01:37:02;;;;;;;11.75;6.85;;;;;;;;;;5004391;28;20040;-77
2023/03/22 01:39:28;;;;;;;17.40;6.93;;;;;;;;;;5009652;28;20156;-76
2023/03/22 01:41:54;;;;;;;17.02;6.22;;;;;;;;;;4992054;28;20055;-76
2023/03/22 01:44:22;;;;;;;9.50;5.60;;;;;;;;;;5008128;28;20049;-76
2023/03/22 01:46:49;;;;;;;13.27;6.07;;;;;;;;;;5010116;28;20374;-76
2023/03/22 01:49:26;;;;;;;14.35;6.40;;;;;;;;;;5018474;28;20099;-76
2023/03/22 01:51:53;;;;;;;12.85;6.20;;;;;;;;;;5003950;28;20063;-76
2023/03/22 01:54:26;;;;;;;11.20;5.43;;;;;;;;;;5008078;28;20056;-77
2023/03/22 01:56:52;;;;;;;10.77;5.38;;;;;;;;;;5007487;28;20124;-76
2023/03/22 01:59:19;;;;;;;12.88;6.10;;;;;;;;;;5010262;28;20049;-76
2023/03/22 02:01:45;;;;;;;16.33;5.82;;;;;;;;;;5006543;28;20137;-76
2023/03/22 02:04:16;;;;;;;13.75;5.25;;;;;;;;;;5012079;28;20653;-76
2023/03/22 02:06:42;;;;;;;14.60;5.50;;;;;;;;;;5008966;28;20044;-77
2023/03/22 02:09:10;;;;;;;16.00;5.00;;;;;;;;;;5006450;28;20052;-76
2023/03/22 02:11:37;;;;;;;16.85;5.43;;;;;;;;;;5005340;28;20052;-77
2023/03/22 02:14:09;;;;;;;12.93;4.70;;;;;;;;;;5009568;28;20045;-76
2023/03/22 02:16:54;;;;;;;10.23;4.60;;;;;;;;;;5003677;28;20037;-76
2023/03/22 02:19:29;;;;;;;10.82;4.75;;;;;;;;;;5004044;28;21772;-76
2023/03/22 02:22:08;;;;;;;11.02;5.30;;;;;;;;;;5013524;28;20168;-76
2023/03/22 02:24:47;;;;;;;9.70;4.38;;;;;;;;;;5004714;28;20041;-76
2023/03/22 02:27:35;;;;;;;9.45;4.70;;;;;;;;;;4994512;28;20049;-76
2023/03/22 02:30:04;;;;;;;8.43;3.15;;;;;;;;;;5006789;28;20444;-76
2023/03/22 02:32:50;;;;;;;7.85;3.63;;;;;;;;;;5002800;28;20045;-77
2023/03/22 02:35:23;;;;;;;11.13;2.92;;;;;;;;;;5023696;28;20041;-77
2023/03/22 02:38:04;;;;;;;8.90;3.20;;;;;;;;;;5010600;28;20052;-76
2023/03/22 02:40:46;;;;;;;7.38;2.45;;;;;;;;;;5008223;28;20904;-77
2023/03/22 02:43:22;;;;;;;9.70;3.10;;;;;;;;;;4989926;28;20071;-77
2023/03/22 02:45:58;;;;;;;9.43;2.88;;;;;;;;;;5007128;28;20049;-77
2023/03/22 02:48:34;;;;;;;10.38;3.25;;;;;;;;;;5005250;28;20049;-77
2023/03/22 02:51:03;;;;;;;16.35;2.47;;;;;;;;;;4988841;28;20049;-75
2023/03/22 02:53:34;;;;;;;7.47;3.38;;;;;;;;;;5007722;28;20045;-76
2023/03/22 02:56:02;;;;;;;7.63;2.38;;;;;;;;;;4993325;28;20052;-77
2023/03/22 02:58:33;;;;;;;6.80;3.03;;;;;;;;;;5011439;28;20050;-77
2023/03/22 03:01:02;;;;;;;11.10;2.67;;;;;;;;;;5012725;28;20053;-76
2023/03/22 03:03:29;;;;;;;10.30;2.55;;;;;;;;;;5008859;28;20049;-77
2023/03/22 03:05:58;;;;;;;10.82;2.42;;;;;;;;;;5009180;28;20075;-77
2023/03/22 03:08:24;;;;;;;10.73;2.65;;;;;;;;;;4997351;28;21746;-77
2023/03/22 03:10:52;;;;;;;12.60;2.60;;;;;;;;;;5008649;28;20056;-77
2023/03/22 03:13:18;;;;;;;7.65;2.20;;;;;;;;;;5006470;28;20049;-76
2023/03/22 03:15:48;;;;;;;14.73;2.72;;;;;;;;;;5006899;28;20048;-76
2023/03/22 03:18:20;;;;;;;8.80;2.33;;;;;;;;;;5024385;28;20045;-76
2023/03/22 03:21:01;;;;;;;13.95;2.97;;;;;;;;;;5004559;28;20047;-76
2023/03/22 03:23:48;;;;;;;13.40;2.30;;;;;;;;;;4994465;28;20978;-76
2023/03/22 03:26:24;;;;;;;12.90;2.80;;;;;;;;;;5007146;28;20639;-76
2023/03/22 03:29:02;;;;;;;7.22;2.38;;;;;;;;;;5007938;28;20077;-76
2023/03/22 03:31:56;;;;;;;7.18;2.28;;;;;;;;;;5028970;28;20067;-76
2023/03/22 03:34:29;;;;;;;8.18;2.85;;;;;;;;;;5013915;28;20052;-76
2023/03/22 03:37:01;;;;;;;13.70;2.85;;;;;;;;;;5007893;28;20045;-76
2023/03/22 03:39:30;;;;;;;10.35;2.08;;;;;;;;;;5011491;28;20784;-76
2023/03/22 03:41:56;;;;;;;9.88;2.10;;;;;;;;;;5010225;28;20072;-76
2023/03/22 03:44:22;;;;;;;12.52;2.97;;;;;;;;;;4993915;28;20143;-76
2023/03/22 03:46:50;;;;;;;10.70;2.67;;;;;;;;;;5010843;28;20135;-77
2023/03/22 03:49:16;;;;;;;6.72;2.30;;;;;;;;;;5010076;28;20052;-77
2023/03/22 03:51:52;;;;;;;12.80;2.70;;;;;;;;;;5008577;28;20114;-77
2023/03/22 03:54:19;;;;;;;9.25;2.47;;;;;;;;;;4995447;28;20247;-77
2023/03/22 03:56:49;;;;;;;14.10;2.58;;;;;;;;;;5009920;28;20048;-77
2023/03/22 03:59:16;;;;;;;13.30;2.85;;;;;;;;;;5007418;28;20166;-77
2023/03/22 04:01:50;;;;;;;9.35;2.42;;;;;;;;;;4994106;28;20161;-77
2023/03/22 04:04:27;;;;;;;14.13;2.40;;;;;;;;;;5014554;28;20070;-77
2023/03/22 04:06:57;;;;;;;17.10;3.17;;;;;;;;;;5030625;28;20049;-77
2023/03/22 04:09:25;;;;;;;16.05;2.67;;;;;;;;;;5012454;28;20057;-76
2023/03/22 04:11:51;;;;;;;6.53;1.55;;;;;;;;;;5013410;28;20045;-76
2023/03/22 04:14:18;;;;;;;11.73;2.17;;;;;;;;;;4993308;28;21313;-76
2023/03/22 04:16:44;;;;;;;8.73;2.30;;;;;;;;;;4988775;28;20041;-77
2023/03/22 04:19:10;;;;;;;10.40;3.10;;;;;;;;;;4997854;28;20041;-77
2023/03/22 04:21:36;;;;;;;10.90;2.53;;;;;;;;;;5015267;28;20037;-77
2023/03/22 04:24:02;;;;;;;14.48;2.88;;;;;;;;;;5012886;28;21984;-77
2023/03/22 04:26:28;;;;;;;11.40;2.40;;;;;;;;;;5013936;28;20056;-77
2023/03/22 04:28:55;;;;;;;8.50;2.30;;;;;;;;;;5014474;28;20045;-77
2023/03/22 04:31:21;;;;;;;13.73;2.92;;;;;;;;;;4996292;28;20206;-76
2023/03/22 04:33:48;;;;;;;7.72;2.97;;;;;;;;;;5013546;28;20081;-77
2023/03/22 04:36:18;;;;;;;13.48;2.58;;;;;;;;;;5011383;28;20045;-76
2023/03/22 04:38:44;;;;;;;14.98;3.00;;;;;;;;;;5014909;28;20170;-77
2023/03/22 04:41:11;;;;;;;11.45;2.92;;;;;;;;;;5011051;28;20041;-77
2023/03/22 04:43:38;;;;;;;11.00;3.13;;;;;;;;;;5010851;28;20651;-76
2023/03/22 04:46:08;;;;;;;14.55;3.38;;;;;;;;;;5011395;28;20053;-76
2023/03/22 04:48:39;;;;;;;19.80;4.00;;;;;;;;;;5009645;28;20172;-77
2023/03/22 04:51:06;;;;;;;9.25;3.42;;;;;;;;;;5007466;28;20075;-77
2023/03/22 04:53:37;;;;;;;13.70;3.83;;;;;;;;;;5009737;28;21024;-77
2023/03/22 04:56:05;;;;;;;12.63;3.65;;;;;;;;;;5006004;28;20057;-76
2023/03/22 04:58:32;;;;;;;12.73;3.58;;;;;;;;;;4987820;28;20050;-76
2023/03/22 05:00:58;;;;;;;11.75;3.88;;;;;;;;;;4991005;28;20526;-76
2023/03/22 05:03:24;;;;;;;14.25;3.67;;;;;;;;;;5007869;28;20110;-76
2023/03/22 05:05:52;;;;;;;12.82;3.30;;;;;;;;;;5000713;28;20581;-76
2023/03/22 05:08:19;;;;;;;12.23;3.60;;;;;;;;;;5017030;28;20048;-76
2023/03/22 05:10:45;;;;;;;10.48;4.13;;;;;;;;;;5020923;28;20160;-76
2023/03/22 05:13:11;;;;;;;13.18;4.60;;;;;;;;;;5013656;28;20045;-76
2023/03/22 05:15:41;;;;;;;10.45;4.38;;;;;;;;;;5005155;28;20048;-76
2023/03/22 05:18:07;;;;;;;11.35;4.57;;;;;;;;;;5000977;28;20046;-76
2023/03/22 05:20:33;;;;;;;9.63;4.13;;;;;;;;;;5018675;28;20126;-76
2023/03/22 05:23:01;;;;;;;12.57;4.63;;;;;;;;;;4995281;28;20110;-76
2023/03/22 05:25:27;;;;;;;10.85;4.78;;;;;;;;;;5030640;28;22077;-76
2023/03/22 05:27:53;;;;;;;13.48;5.18;;;;;;;;;;5019956;28;20493;-76
2023/03/22 05:30:20;;;;;;;8.68;4.88;;;;;;;;;;5013967;28;20128;-76
2023/03/22 05:32:46;;;;;;;13.50;5.13;;;;;;;;;;5001085;28;20044;-76
2023/03/22 05:35:13;;;;;;;15.00;6.15;;;;;;;;;;5014151;28;20167;-76
2023/03/22 05:37:39;;;;;;;13.95;6.10;;;;;;;;;;5024282;28;20145;-77
2023/03/22 05:40:08;;;;;;;13.40;6.13;;;;;;;;;;5018509;28;20773;-77
2023/03/22 05:42:35;;;;;;;13.60;7.30;;;;;;;;;;4994982;28;20535;-77
2023/03/22 05:45:01;;;;;;;20.05;6.32;;;;;;;;;;5017895;28;21249;-76
2023/03/22 05:47:27;;;;;;;19.00;7.20;;;;;;;;;;5011672;28;20128;-76
2023/03/22 05:49:54;;;;;;;12.45;6.72;;;;;;;;;;5012321;28;20180;-76
2023/03/22 05:52:20;;;;;;;12.40;6.30;;;;;;;;;;4994651;28;20527;-76
2023/03/22 05:54:46;;;;;;;14.32;7.35;;;;;;;;;;4991704;28;22271;-76
2023/03/22 05:57:12;;;;;;;15.98;7.75;;;;;;;;;;4995896;28;20041;-77
2023/03/22 05:59:38;;;;;;;16.63;8.65;;;;;;;;;;4999028;28;20234;-77
2023/03/22 06:02:04;;;;;;;16.20;7.90;;;;;;;;;;5015603;28;20051;-77
2023/03/22 06:04:31;;;;;;;13.23;7.47;;;;;;;;;;5019277;28;20169;-77
2023/03/22 06:06:57;;;;;;;16.55;8.90;;;;;;;;;;5001884;28;20099;-76
2023/03/22 06:09:23;;;;;;;19.02;9.00;;;;;;;;;;5016623;28;21983;-77
2023/03/22 06:11:50;;;;;;;17.08;8.82;;;;;;;;;;5002433;28;20109;-79
2023/03/22 06:14:16;;;;;;;19.73;10.25;;;;;;;;;;5017880;28;20052;-79
2023/03/22 06:16:42;;;;;;;16.52;8.57;;;;;;;;;;5017288;28;20058;-79
2023/03/22 06:19:08;;;;;;;19.52;10.90;;;;;;;;;;5018506;28;20064;-79
2023/03/22 06:21:34;;;;;;;16.48;9.65;;;;;;;;;;5017319;28;20081;-79
2023/03/22 06:24:00;;;;;;;18.80;9.27;;;;;;;;;;5001417;28;20044;-79
2023/03/22 06:26:26;;;;;;;19.00;11.68;;;;;;;;;;5017698;28;20446;-79
2023/03/22 06:28:52;;;;;;;16.75;9.18;;;;;;;;;;5009887;28;20618;-79
2023/03/22 06:31:18;;;;;;;19.08;10.93;;;;;;;;;;4995873;28;20049;-79
2023/03/22 06:33:45;;;;;;;21.15;11.52;;;;;;;;;;5013853;28;20160;-79
2023/03/22 06:36:11;;;;;;;17.40;10.77;;;;;;;;;;4995720;28;20400;-79
2023/03/22 06:38:37;;;;;;;21.63;10.93;;;;;;;;;;5012601;28;20053;-79
2023/03/22 06:41:03;;;;;;;14.20;9.13;;;;;;;;;;5011244;28;20045;-79
2023/03/22 06:43:29;;;;;;;19.48;10.95;;;;;;;;;;4996666;28;20053;-78
2023/03/22 06:45:58;;;;;;;21.95;10.70;;;;;;;;;;5011147;28;20572;-79
2023/03/22 06:48:24;;;;;;;15.73;8.90;;;;;;;;;;5003097;28;20052;-78
2023/03/22 06:50:50;;;;;;;16.00;9.18;;;;;;;;;;5005734;28;20045;-78
2023/03/22 06:53:16;;;;;;;16.00;9.35;;;;;;;;;;5021800;28;20162;-80
2023/03/22 06:55:42;;;;;;;17.92;9.13;;;;;;;;;;5001337;28;20049;-78
2023/03/22 06:58:08;;;;;;;17.80;9.80;;;;;;;;;;5022146;28;20045;-78
2023/03/22 07:00:35;;;;;;;15.60;8.90;;;;;;;;;;5019487;28;20068;-79
2023/03/22 07:03:02;;;;;;;16.38;9.70;;;;;;;;;;5014453;28;20060;-79
2023/03/22 07:05:28;;;;;;;13.48;7.70;;;;;;;;;;5004264;28;20130;-79
2023/03/22 07:07:54;;;;;;;15.70;9.40;;;;;;;;;;4999354;28;20053;-79
2023/03/22 07:10:20;;;;;;;13.38;8.82;;;;;;;;;;5010382;28;20048;-79
2023/03/22 07:12:46;;;;;;;16.00;8.95;;;;;;;;;;4996024;28;20994;-79
2023/03/22 07:15:12;;;;;;;17.77;8.77;;;;;;;;;;4998991;28;20045;-79
2023/03/22 07:17:38;;;;;;;16.42;9.55;;;;;;;;;;5014738;28;20054;-79
2023/03/22 07:20:05;;;;;;;18.98;9.82;;;;;;;;;;5009399;28;20958;-79
2023/03/22 07:22:31;;;;;;;18.98;9.75;;;;;;;;;;5014536;28;20092;-79
2023/03/22 07:24:57;;;;;;;11.63;8.02;;;;;;;;;;5005805;28;20047;-79
2023/03/22 07:27:23;;;;;;;13.95;8.43;;;;;;;;;;5013591;28;20077;-80
2023/03/22 07:29:49;;;;;;;15.43;9.23;;;;;;;;;;5008204;28;20124;-80
2023/03/22 07:32:15;;;;;;;16.67;8.95;;;;;;;;;;5015010;28;20045;-80
2023/03/22 07:34:41;;;;;;;20.52;11.32;;;;;;;;;;5006187;28;20037;-80
2023/03/22 07:37:07;;;;;;;14.55;9.13;;;;;;;;;;5013685;28;21433;-80
2023/03/22 07:39:34;;;;;;;18.92;9.48;;;;;;;;;;5016934;28;20070;-79
2023/03/22 07:42:00;;;;;;;15.80;8.98;;;;;;;;;;5000045;28;20110;-79
2023/03/22 07:44:26;;;;;;;17.83;10.32;;;;;;;;;;5014955;28;20087;-80
2023/03/22 07:46:52;;;;;;;14.07;8.38;;;;;;;;;;5016256;28;20176;-80
2023/03/22 07:49:18;;;;;;;17.95;10.57;;;;;;;;;;5018853;28;20049;-80
2023/03/22 07:51:45;;;;;;;18.15;9.80;;;;;;;;;;5005124;28;20133;-80
2023/03/22 07:54:11;;;;;;;12.57;8.65;;;;;;;;;;5020761;28;20052;-80
2023/03/22 07:56:37;;;;;;;15.88;8.20;;;;;;;;;;5019094;28;20041;-80
2023/03/22 07:59:04;;;;;;;15.48;8.50;;;;;;;;;;5017897;28;20546;-80
2023/03/22 08:01:30;;;;;;;14.38;9.45;;;;;;;;;;5003082;28;20049;-80
2023/03/22 08:03:56;;;;;;;16.42;8.95;;;;;;;;;;5004629;28;20412;-80
2023/03/22 08:06:22;;;;;;;10.70;7.93;;;;;;;;;;5021080;28;20095;-80
2023/03/22 08:08:48;;;;;;;19.63;8.30;;;;;;;;;;5021985;28;20053;-80
2023/03/22 08:11:14;;;;;;;12.80;8.55;;;;;;;;;;5018754;28;20045;-78
2023/03/22 08:13:40;;;;;;;14.40;8.50;;;;;;;;;;5020381;28;20103;-79
2023/03/22 08:16:06;;;;;;;15.25;8.25;;;;;;;;;;5023560;28;20056;-79
2023/03/22 08:18:32;;;;;;;15.80;8.50;;;;;;;;;;5019175;28;20422;-79
2023/03/22 08:20:59;;;;;;;12.55;8.13;;;;;;;;;;5020887;28;20084;-79
2023/03/22 08:23:27;;;;;;;14.73;7.80;;;;;;;;;;5019131;28;20055;-79
2023/03/22 08:25:53;;;;;;;16.95;8.52;;;;;;;;;;5002539;28;20037;-78
2023/03/22 08:28:19;;;;;;;9.77;7.00;;;;;;;;;;5003422;28;20044;-78
2023/03/22 08:30:46;;;;;;;16.50;8.10;;;;;;;;;;5028078;28;20389;-79
2023/03/22 08:33:13;;;;;;;15.15;7.60;;;;;;;;;;5037230;28;20050;-79
2023/03/22 08:35:39;;;;;;;21.85;8.38;;;;;;;;;;5032894;28;20048;-78
2023/03/22 08:38:05;;;;;;;17.75;6.60;;;;;;;;;;5029012;28;20037;-77
2023/03/22 08:40:31;;;;;;;13.27;7.25;;;;;;;;;;4997774;28;20068;-77
2023/03/22 08:42:58;;;;;;;14.25;6.95;;;;;;;;;;5020379;28;20330;-78
2023/03/22 08:45:24;;;;;;;9.85;6.28;;;;;;;;;;5020049;28;20056;-79
2023/03/22 08:47:51;;;;;;;14.80;7.63;;;;;;;;;;5019326;28;20045;-79
2023/03/22 08:50:17;;;;;;;19.40;7.80;;;;;;;;;;5003174;28;20117;-79
2023/03/22 08:52:43;;;;;;;15.27;6.68;;;;;;;;;;5017441;28;20049;-79
2023/03/22 08:55:09;;;;;;;14.93;6.65;;;;;;;;;;5020244;28;20098;-78
2023/03/22 08:57:35;;;;;;;18.20;6.78;;;;;;;;;;5004260;28;20045;-78
2023/03/22 09:00:03;;;;;;;20.27;7.38;;;;;;;;;;4997604;28;20057;-78
2023/03/22 09:02:30;;;;;;;8.50;4.72;;;;;;;;;;5021301;28;20045;-79
2023/03/22 09:04:56;;;;;;;14.63;6.25;;;;;;;;;;5017116;28;20600;-78
2023/03/22 09:07:23;;;;;;;11.05;5.50;;;;;;;;;;5020404;28;20034;-79
2023/03/22 09:09:49;;;;;;;11.43;4.95;;;;;;;;;;5002682;28;20866;-78
2023/03/22 09:12:15;;;;;;;11.23;5.25;;;;;;;;;;5014796;28;20038;-79
2023/03/22 09:14:42;;;;;;;10.52;5.03;;;;;;;;;;5009424;28;20049;-78
2023/03/22 09:17:08;;;;;;;8.05;4.70;;;;;;;;;;5011622;28;20056;-78
2023/03/22 09:19:34;;;;;;;12.27;5.57;;;;;;;;;;4996869;28;21020;-78
2023/03/22 09:22:00;;;;;;;13.35;5.53;;;;;;;;;;5013995;28;20119;-78
2023/03/22 09:24:27;;;;;;;20.45;5.53;;;;;;;;;;5017166;28;20417;-78
2023/03/22 09:26:53;;;;;;;8.77;4.32;;;;;;;;;;5006532;28;20052;-78
2023/03/22 09:29:19;;;;;;;13.63;5.15;;;;;;;;;;5015343;28;20152;-78
2023/03/22 09:31:47;;;;;;;9.90;5.00;;;;;;;;;;5015833;28;20045;-78
2023/03/22 09:34:14;;;;;;;14.05;4.43;;;;;;;;;;5002600;28;20045;-79
2023/03/22 09:36:40;;;;;;;9.00;4.95;;;;;;;;;;5017642;28;20033;-81
2023/03/22 09:39:06;;;;;;;10.50;5.05;;;;;;;;;;5006098;28;20125;-80
2023/03/22 09:41:51;;;;;;;10.98;4.40;;;;;;;;;;5019853;28;20049;-81
2023/03/22 09:44:23;;;;;;;12.80;4.70;;;;;;;;;;5019127;28;20053;-78
2023/03/22 09:46:51;;;;;;;10.57;4.40;;;;;;;;;;5036207;28;20046;-80
2023/03/22 09:49:20;;;;;;;13.95;3.95;;;;;;;;;;5015553;28;20477;-79
2023/03/22 09:51:51;;;;;;;14.77;5.00;;;;;;;;;;5018419;28;20460;-80
2023/03/22 09:54:20;;;;;;;6.68;3.65;;;;;;;;;;5001250;28;20049;-80
2023/03/22 09:56:53;;;;;;;9.80;3.80;;;;;;;;;;5018266;28;20048;-79
2023/03/22 09:59:38;;;;;;;17.17;4.28;;;;;;;;;;5026677;28;20124;-79
2023/03/22 10:02:15;;;;;;;11.93;4.60;;;;;;;;;;5018029;28;20179;-80
2023/03/22 10:04:56;;;;;;;10.13;4.40;;;;;;;;;;5018722;28;20055;-79
2023/03/22 10:07:49;;;;;;;11.40;3.83;;;;;;;;;;5025123;28;20504;-76
2023/03/22 10:10:19;;;;;;;9.88;4.28;;;;;;;;;;5010399;28;20576;-76
2023/03/22 10:12:58;;;;;;;13.55;4.40;;;;;;;;;;5018341;28;20473;-75
2023/03/22 10:15:31;;;;;;;6.97;2.78;;;;;;;;;;5004254;28;20781;-75
2023/03/22 10:17:58;;;;;;;9.85;3.97;;;;;;;;;;5025502;28;20045;-74
2023/03/22 10:20:27;;;;;;;11.45;4.20;;;;;;;;;;5027175;28;20037;-76
2023/03/22 10:22:54;;;;;;;10.95;4.30;;;;;;;;;;5003081;28;20052;-76
2023/03/22 10:25:23;;;;;;;9.68;4.95;;;;;;;;;;5017207;28;20136;-76
2023/03/22 10:27:51;;;;;;;11.05;4.97;;;;;;;;;;5019329;28;20178;-77
2023/03/22 10:30:24;;;;;;;9.70;4.22;;;;;;;;;;5018442;28;20131;-76
2023/03/22 10:33:00;;;;;;;18.77;6.03;;;;;;;;;;5016663;28;20695;-77
2023/03/22 10:35:27;;;;;;;18.10;6.18;;;;;;;;;;5016060;28;20140;-77
2023/03/22 10:37:54;;;;;;;12.20;4.93;;;;;;;;;;5000739;28;20503;-77
2023/03/22 10:40:23;;;;;;;14.18;5.32;;;;;;;;;;5022952;28;20045;-77
2023/03/22 10:42:54;;;;;;;11.60;4.65;;;;;;;;;;5016532;28;20041;-77
2023/03/22 10:45:21;;;;;;;12.25;5.38;;;;;;;;;;5015402;28;20041;-78
2023/03/22 10:47:56;;;;;;;13.40;6.35;;;;;;;;;;4999975;28;20032;-77
2023/03/22 10:50:29;;;;;;;13.82;5.50;;;;;;;;;;5017910;28;20049;-77
2023/03/22 10:52:58;;;;;;;10.45;4.30;;;;;;;;;;5020740;28;20037;-77
2023/03/22 10:55:25;;;;;;;8.90;5.30;;;;;;;;;;5020420;28;20048;-77
2023/03/22 10:57:55;;;;;;;9.88;4.97;;;;;;;;;;5029651;28;20441;-77
2023/03/22 11:00:23;;;;;;;10.15;4.22;;;;;;;;;;5021272;28;20053;-77
2023/03/22 11:02:53;;;;;;;11.05;4.93;;;;;;;;;;5019461;28;20057;-77
2023/03/22 11:05:22;;;;;;;9.50;4.82;;;;;;;;;;5019892;28;20072;-77
2023/03/22 11:07:49;;;;;;;9.40;5.30;;;;;;;;;;5022425;28;20037;-77
2023/03/22 11:10:18;;;;;;;10.73;5.22;;;;;;;;;;5020917;28;20061;-77
2023/03/22 11:12:47;;;;;;;8.20;5.68;;;;;;;;;;5003466;28;20037;-78
2023/03/22 11:15:20;;;;;;;13.10;6.90;;;;;;;;;;5021299;28;20069;-78
2023/03/22 11:17:46;;;;;;;18.55;7.82;;;;;;;;;;5019099;28;20037;-78
2023/03/22 11:20:16;;;;;;;19.08;7.55;;;;;;;;;;5017470;28;20674;-78
2023/03/22 11:22:43;;;;;;;19.88;7.75;;;;;;;;;;5022396;28;20107;-78
2023/03/22 11:25:14;;;;;;;10.63;6.30;;;;;;;;;;5020076;28;20082;-78
2023/03/22 11:27:49;;;;;;;12.80;7.57;;;;;;;;;;5018328;28;20045;-78
2023/03/22 11:30:35;;;;;;;11.35;6.43;;;;;;;;;;5020482;28;20131;-78
2023/03/22 11:33:14;;;;;;;10.93;6.80;;;;;;;;;;5021062;28;20042;-77
2023/03/22 11:35:43;;;;;;;10.95;6.60;;;;;;;;;;5005103;28;20049;-77
2023/03/22 11:38:21;;;;;;;12.40;5.72;;;;;;;;;;5019451;28;20040;-77
2023/03/22 11:40:51;;;;;;;8.20;4.78;;;;;;;;;;5019130;28;21284;-77
2023/03/22 11:43:26;;;;;;;7.20;4.82;;;;;;;;;;5004716;28;20104;-77
2023/03/22 11:45:57;;;;;;;12.80;5.38;;;;;;;;;;5001831;28;20045;-77
2023/03/22 11:48:28;;;;;;;11.30;5.18;;;;;;;;;;5021889;28;20053;-76
2023/03/22 11:50:55;;;;;;;13.10;5.85;;;;;;;;;;5020993;28;20045;-77
2023/03/22 11:53:23;;;;;;;11.02;4.47;;;;;;;;;;5019818;28;20037;-76
2023/03/22 11:55:50;;;;;;;11.60;5.03;;;;;;;;;;5009701;28;20041;-76
2023/03/22 11:58:39;;;;;;;8.02;4.55;;;;;;;;;;5021748;28;20041;-76
2023/03/22 12:01:07;;;;;;;8.70;4.38;;;;;;;;;;5025755;28;20480;-76
2023/03/22 12:03:35;;;;;;;5.97;4.07;;;;;;;;;;5024901;28;20052;-76
2023/03/22 12:06:04;;;;;;;12.15;4.57;;;;;;;;;;5004148;28;20049;-77
2023/03/22 12:08:41;;;;;;;11.60;4.60;;;;;;;;;;5019137;28;20060;-77
2023/03/22 12:11:10;;;;;;;11.20;4.47;;;;;;;;;;5020366;28;20049;-77
2023/03/22 12:13:36;;;;;;;9.30;4.70;;;;;;;;;;5018007;28;20052;-77
2023/03/22 12:16:04;;;;;;;7.45;4.30;;;;;;;;;;5017327;28;20069;-77
2023/03/22 12:18:36;;;;;;;6.13;3.45;;;;;;;;;;5018975;28;20048;-77
2023/03/22 12:21:02;;;;;;;7.03;4.07;;;;;;;;;;5017674;28;20040;-77
2023/03/22 12:23:29;;;;;;;9.50;3.58;;;;;;;;;;5019412;28;20110;-77
2023/03/22 12:26:04;;;;;;;5.72;3.70;;;;;;;;;;5020626;28;20056;-76
2023/03/22 12:28:42;;;;;;;9.30;4.07;;;;;;;;;;5019040;28;20053;-77
2023/03/22 12:31:12;;;;;;;6.47;3.88;;;;;;;;;;5018064;28;20041;-76
2023/03/22 12:33:49;;;;;;;6.72;3.30;;;;;;;;;;5020665;28;20146;-78
2023/03/22 12:36:45;;;;;;;8.52;4.07;;;;;;;;;;5020002;28;20038;-77
2023/03/22 12:39:37;;;;;;;8.00;4.70;;;;;;;;;;4992583;28;20048;-77
2023/03/22 12:42:10;;;;;;;8.48;5.00;;;;;;;;;;5005021;28;20139;-77
2023/03/22 12:44:39;;;;;;;14.57;4.70;;;;;;;;;;4990370;28;20132;-78
2023/03/22 12:47:25;;;;;;;8.95;4.75;;;;;;;;;;5005946;28;21992;-78
2023/03/22 12:50:03;;;;;;;10.60;5.60;;;;;;;;;;5009056;28;20565;-77
2023/03/22 12:52:36;;;;;;;8.65;4.47;;;;;;;;;;5018970;28;20056;-78
2023/03/22 12:55:04;;;;;;;9.63;5.00;;;;;;;;;;5005699;28;20048;-81
2023/03/22 12:57:30;;;;;;;8.82;4.35;;;;;;;;;;5021156;28;20322;-82
2023/03/22 12:59:59;;;;;;;8.05;4.43;;;;;;;;;;4963718;28;1114672;-82
2023/03/22 13:02:30;;;;;;;11.13;4.97;;;;;;;;;;5019997;28;20071;-80
2023/03/22 13:04:58;;;;;;;8.98;5.15;;;;;;;;;;5009331;28;20049;-79
2023/03/22 13:07:29;;;;;;;9.05;4.72;;;;;;;;;;5022794;28;20674;-80
2023/03/22 13:09:56;;;;;;;8.70;5.53;;;;;;;;;;5015215;28;20626;-79
2023/03/22 13:12:23;;;;;;;8.07;4.47;;;;;;;;;;5017585;28;20048;-82
2023/03/22 13:15:00;;;;;;;7.30;5.00;;;;;;;;;;5021785;28;20160;-81
2023/03/22 13:17:26;;;;;;;12.88;6.30;;;;;;;;;;5020836;28;20052;-82
2023/03/22 13:19:53;;;;;;;16.42;8.07;;;;;;;;;;5019956;28;20048;-83
2023/03/22 13:22:19;;;;;;;13.00;6.45;;;;;;;;;;5004329;28;20091;-83
2023/03/22 13:24:59;;;;;;;14.05;7.15;;;;;;;;;;5022000;28;20501;-83
2023/03/22 13:27:42;;;;;;;14.18;7.90;;;;;;;;;;5006760;28;20041;-82
2023/03/22 13:30:16;;;;;;;12.40;7.35;;;;;;;;;;5022137;28;20095;-81
2023/03/22 13:32:50;;;;;;;18.23;6.70;;;;;;;;;;5002223;28;20059;-82
2023/03/22 13:35:22;;;;;;;14.60;7.97;;;;;;;;;;5019622;28;22080;-82
2023/03/22 13:37:49;;;;;;;17.08;7.90;;;;;;;;;;5020609;28;20765;-81
2023/03/22 13:40:26;;;;;;;12.73;7.82;;;;;;;;;;5028748;28;20090;-82
2023/03/22 13:42:53;;;;;;;16.38;7.35;;;;;;;;;;5030905;28;20033;-82
2023/03/22 13:45:30;;;;;;;16.40;8.02;;;;;;;;;;5022770;28;20037;-81
2023/03/22 13:48:09;;;;;;;12.88;6.78;;;;;;;;;;5022713;28;20056;-80
2023/03/22 13:50:36;;;;;;;14.57;8.60;;;;;;;;;;5017461;28;20041;-80
2023/03/22 13:53:05;;;;;;;13.00;7.78;;;;;;;;;;5029915;28;20084;-81
2023/03/22 13:56:02;;;;;;;18.35;9.32;;;;;;;;;;5004730;28;20048;-84
2023/03/22 13:58:35;;;;;;;11.90;7.47;;;;;;;;;;5020781;28;20145;-79
2023/03/22 14:01:05;;;;;;;11.40;8.40;;;;;;;;;;5016184;28;20536;-80
2023/03/22 14:03:36;;;;;;;12.90;8.98;;;;;;;;;;5018878;28;20056;-80
2023/03/22 14:06:16;;;;;;;12.55;8.80;;;;;;;;;;5018597;28;20048;-80
2023/03/22 14:08:43;;;;;;;12.65;8.50;;;;;;;;;;5017190;28;20149;-80
2023/03/22 14:11:10;;;;;;;15.88;8.02;;;;;;;;;;5019424;28;20045;-79
2023/03/22 14:13:47;;;;;;;13.40;8.50;;;;;;;;;;5016664;28;20045;-80
2023/03/22 14:16:37;;;;;;;15.48;9.23;;;;;;;;;;5017700;28;20144;-79
2023/03/22 14:19:05;;;;;;;10.05;7.80;;;;;;;;;;4992608;28;20055;-79
2023/03/22 14:21:33;;;;;;;16.75;9.52;;;;;;;;;;5019172;28;20037;-79
2023/03/22 14:24:00;;;;;;;12.85;8.73;;;;;;;;;;5006354;28;20048;-79
2023/03/22 14:26:38;;;;;;;13.85;7.15;;;;;;;;;;5002110;28;20546;-79
2023/03/22 14:29:16;;;;;;;16.13;8.57;;;;;;;;;;5001701;28;21958;-78
2023/03/22 14:31:42;;;;;;;13.02;7.90;;;;;;;;;;5003424;28;20076;-79
2023/03/22 14:34:16;;;;;;;15.45;10.23;;;;;;;;;;5016998;28;20068;-79
2023/03/22 14:36:43;;;;;;;10.57;7.80;;;;;;;;;;5005176;28;20998;-79
2023/03/22 14:39:12;;;;;;;13.20;8.98;;;;;;;;;;5001819;28;20043;-79
2023/03/22 14:41:55;;;;;;;14.70;8.73;;;;;;;;;;5019212;28;20176;-79
2023/03/22 14:44:21;;;;;;;11.40;8.40;;;;;;;;;;5002517;28;20045;-80